createdAt,value
2023-04-20T00:00:14.658Z,3
2023-04-20T00:01:15.118Z,3
2023-04-20T00:02:15.897Z,4
2023-04-20T00:03:16.554Z,4
2023-04-20T00:04:15.245Z,4
2023-04-20T00:05:15.355Z,4
2023-04-20T00:07:14.461Z,4
2023-04-20T00:08:14.815Z,4
2023-04-20T00:09:15.271Z,4
2023-04-20T00:10:15.564Z,4
2023-04-20T00:11:14.703Z,4
2023-04-20T00:12:14.934Z,3
2023-04-20T00:13:15.410Z,3
2023-04-20T00:14:15.352Z,3
2023-04-20T00:16:15.152Z,3
2023-04-20T00:17:15.590Z,3
2023-04-20T00:18:15.712Z,3
2023-04-20T00:21:14.781Z,3
2023-04-20T00:22:15.133Z,4
2023-04-20T00:23:15.285Z,4
2023-04-20T00:24:15.279Z,4
2023-04-20T00:25:16.014Z,4
2023-04-20T00:26:14.695Z,4
2023-04-20T00:27:15.205Z,1
2023-04-20T00:28:15.208Z,1
2023-04-20T00:29:15.656Z,1
2023-04-20T00:30:14.824Z,1
2023-04-20T00:31:15.423Z,1
2023-04-20T00:32:14.915Z,1
2023-04-20T00:33:15.415Z,1
2023-04-20T00:36:14.732Z,1
2023-04-20T00:37:15.527Z,0
2023-04-20T00:38:15.255Z,0
2023-04-20T00:39:14.858Z,0
2023-04-20T00:40:14.833Z,0
2023-04-20T00:41:15.256Z,0
2023-04-20T00:42:15.449Z,0
2023-04-20T00:43:14.734Z,0
2023-04-20T00:44:14.615Z,0
2023-04-20T00:45:15.279Z,0
2023-04-20T00:46:14.988Z,0
2023-04-20T00:47:15.084Z,1
2023-04-20T00:48:15.222Z,1
2023-04-20T00:49:15.551Z,1
2023-04-20T00:54:15.189Z,0
2023-04-20T00:55:14.619Z,0
2023-04-20T00:56:14.818Z,0
2023-04-20T00:57:15.257Z,0
2023-04-20T00:58:14.564Z,0
2023-04-20T00:59:14.900Z,0
2023-04-20T01:00:15.435Z,0
2023-04-20T01:01:14.838Z,0
2023-04-20T01:02:15.429Z,1
2023-04-20T01:03:16.084Z,1
2023-04-20T01:04:15.184Z,1
2023-04-20T01:05:14.647Z,1
2023-04-20T01:06:15.156Z,1
2023-04-20T01:07:15.605Z,1
2023-04-20T01:09:14.579Z,1
2023-04-20T01:10:15.013Z,1
2023-04-20T01:11:15.507Z,1
2023-04-20T01:12:14.695Z,0
2023-04-20T01:13:14.668Z,0
2023-04-20T01:14:15.338Z,0
2023-04-20T01:15:15.666Z,0
2023-04-20T01:16:15.105Z,0
2023-04-20T01:19:15.258Z,1
2023-04-20T01:20:15.714Z,1
2023-04-20T01:21:14.750Z,1
2023-04-20T01:22:15.092Z,1
2023-04-20T01:23:15.332Z,1
2023-04-20T01:24:14.582Z,1
2023-04-20T01:25:15.019Z,1
2023-04-20T01:26:15.200Z,1
2023-04-20T01:27:15.493Z,0
2023-04-20T01:31:15.000Z,0
2023-04-20T01:32:14.895Z,3
2023-04-20T01:33:15.525Z,3
2023-04-20T01:35:14.943Z,3
2023-04-20T01:36:14.878Z,3
2023-04-20T01:37:15.410Z,0
2023-04-20T01:42:15.412Z,0
2023-04-20T01:43:14.625Z,0
2023-04-20T01:44:14.702Z,0
2023-04-20T01:45:14.982Z,0
2023-04-20T01:46:15.425Z,0
2023-04-20T01:47:15.785Z,0
2023-04-20T01:48:15.083Z,0
2023-04-20T01:49:15.805Z,0
2023-04-20T01:50:14.789Z,0
2023-04-20T01:51:14.991Z,0
2023-04-20T01:52:15.207Z,0
2023-04-20T01:53:15.555Z,0
2023-04-20T01:58:14.663Z,0
2023-04-20T01:59:14.848Z,0
2023-04-20T02:00:15.250Z,0
2023-04-20T02:01:15.771Z,0
2023-04-20T02:02:15.273Z,0
2023-04-20T02:03:16.349Z,0
2023-04-20T02:04:15.622Z,0
2023-04-20T02:06:14.763Z,0
2023-04-20T02:07:15.065Z,3
2023-04-20T02:08:15.461Z,3
2023-04-20T02:09:14.824Z,3
2023-04-20T02:10:15.000Z,3
2023-04-20T02:11:15.470Z,3
2023-04-20T02:12:15.546Z,0
2023-04-20T02:16:14.697Z,0
2023-04-20T02:17:15.277Z,1
2023-04-20T02:20:14.618Z,1
2023-04-20T02:21:14.906Z,1
2023-04-20T02:22:14.993Z,0
2023-04-20T02:23:15.258Z,0
2023-04-20T02:24:15.607Z,0
2023-04-20T02:25:14.866Z,0
2023-04-20T02:26:15.289Z,0
2023-04-20T02:27:14.333Z,1
2023-04-20T02:28:15.044Z,1
2023-04-20T02:29:15.318Z,1
2023-04-20T02:30:15.533Z,1
2023-04-20T02:31:14.705Z,1
2023-04-20T02:32:14.828Z,1
2023-04-20T02:33:15.570Z,1
2023-04-20T02:34:14.712Z,1
2023-04-20T02:35:15.171Z,1
2023-04-20T02:36:15.277Z,1
2023-04-20T02:37:15.148Z,3
2023-04-20T02:39:14.774Z,3
2023-04-20T02:40:15.612Z,3
2023-04-20T02:41:14.718Z,3
2023-04-20T02:42:14.820Z,1
2023-04-20T02:43:14.986Z,1
2023-04-20T02:44:15.550Z,1
2023-04-20T02:45:14.590Z,1
2023-04-20T02:46:15.127Z,1
2023-04-20T02:49:15.526Z,1
2023-04-20T02:50:14.651Z,1
2023-04-20T02:51:14.793Z,1
2023-04-20T02:52:15.173Z,1
2023-04-20T02:53:14.382Z,1
2023-04-20T02:54:14.952Z,1
2023-04-20T02:55:15.136Z,1
2023-04-20T02:56:15.224Z,1
2023-04-20T02:57:15.580Z,0
2023-04-20T02:58:14.825Z,0
2023-04-20T02:59:15.154Z,0
2023-04-20T03:00:15.197Z,0
2023-04-20T03:01:15.293Z,0
2023-04-20T03:02:16.185Z,0
2023-04-20T03:05:15.620Z,0
2023-04-20T03:06:14.748Z,0
2023-04-20T03:07:17.462Z,0
2023-04-20T03:10:14.596Z,0
2023-04-20T03:11:14.945Z,0
2023-04-20T03:12:14.976Z,0
2023-04-20T03:13:15.093Z,0
2023-04-20T03:14:15.244Z,0
2023-04-20T03:15:14.713Z,0
2023-04-20T03:16:15.234Z,0
2023-04-20T03:19:14.672Z,3
2023-04-20T03:20:15.143Z,3
2023-04-20T03:21:15.028Z,3
2023-04-20T03:22:15.626Z,1
2023-04-20T03:23:15.722Z,1
2023-04-20T03:24:14.862Z,1
2023-04-20T03:25:15.344Z,1
2023-04-20T03:26:15.346Z,1
2023-04-20T03:27:15.405Z,3
2023-04-20T03:28:14.745Z,3
2023-04-20T03:29:15.086Z,3
2023-04-20T03:30:15.364Z,3
2023-04-20T03:31:15.446Z,3
2023-04-20T03:32:14.802Z,5
2023-04-20T03:33:15.384Z,5
2023-04-20T03:36:14.743Z,5
2023-04-20T03:37:15.015Z,3
2023-04-20T03:38:15.374Z,3
2023-04-20T03:39:15.808Z,3
2023-04-20T03:40:14.997Z,3
2023-04-20T03:41:15.467Z,3
2023-04-20T03:42:15.349Z,3
2023-04-20T03:47:15.517Z,1
2023-04-20T03:48:14.797Z,1
2023-04-20T03:49:15.014Z,1
2023-04-20T03:50:15.416Z,1
2023-04-20T03:51:15.378Z,1
2023-04-20T03:52:14.716Z,0
2023-04-20T03:53:14.897Z,0
2023-04-20T03:54:14.978Z,0
2023-04-20T03:55:15.516Z,0
2023-04-20T03:56:14.711Z,0
2023-04-20T03:57:15.038Z,1
2023-04-20T03:58:15.189Z,1
2023-04-20T03:59:15.875Z,1
2023-04-20T04:03:16.191Z,1
2023-04-20T04:04:17.280Z,1
2023-04-20T04:05:15.739Z,1
2023-04-20T04:06:14.925Z,1
2023-04-20T04:07:13.805Z,3
2023-04-20T04:08:15.100Z,3
2023-04-20T04:09:15.608Z,3
2023-04-20T04:10:15.638Z,3
2023-04-20T04:15:15.034Z,4
2023-04-20T04:16:14.921Z,4
2023-04-20T04:17:15.581Z,3
2023-04-20T04:18:15.760Z,3
2023-04-20T04:19:15.864Z,3
2023-04-20T04:20:15.133Z,3
2023-04-20T04:21:15.148Z,3
2023-04-20T04:22:15.451Z,3
2023-04-20T04:23:15.408Z,3
2023-04-20T04:28:14.736Z,4
2023-04-20T04:29:14.964Z,4
2023-04-20T04:30:15.400Z,4
2023-04-20T04:31:15.580Z,4
2023-04-20T04:32:14.713Z,1
2023-04-20T04:33:15.416Z,1
2023-04-20T04:34:15.112Z,1
2023-04-20T04:35:15.693Z,1
2023-04-20T04:38:14.942Z,3
2023-04-20T04:39:15.370Z,3
2023-04-20T04:40:15.586Z,3
2023-04-20T04:41:14.872Z,3
2023-04-20T04:43:15.059Z,1
2023-04-20T04:44:14.364Z,1
2023-04-20T04:45:14.936Z,1
2023-04-20T04:46:14.983Z,1
2023-04-20T04:47:15.091Z,1
2023-04-20T04:49:14.522Z,1
2023-04-20T04:50:14.913Z,1
2023-04-20T04:51:15.135Z,1
2023-04-20T04:52:15.183Z,3
2023-04-20T04:53:15.612Z,3
2023-04-20T04:55:17.812Z,3
2023-04-20T04:58:14.735Z,1
2023-04-20T04:59:15.053Z,1
2023-04-20T05:00:15.192Z,1
2023-04-20T05:01:15.423Z,1
2023-04-20T05:02:15.201Z,3
2023-04-20T05:03:15.877Z,3
2023-04-20T05:04:16.629Z,3
2023-04-20T05:05:16.592Z,3
2023-04-20T05:06:14.909Z,3
2023-04-20T05:07:15.184Z,4
2023-04-20T05:08:15.306Z,4
2023-04-20T05:09:14.640Z,4
2023-04-20T05:10:16.844Z,4
2023-04-20T05:13:14.956Z,6
2023-04-20T05:14:15.062Z,6
2023-04-20T05:15:15.388Z,6
2023-04-20T05:16:15.864Z,6
2023-04-20T05:17:14.894Z,5
2023-04-20T05:18:15.275Z,5
2023-04-20T05:19:15.569Z,5
2023-04-20T05:20:14.865Z,5
2023-04-20T05:21:15.239Z,5
2023-04-20T05:22:14.646Z,5
2023-04-20T05:23:14.762Z,5
2023-04-20T05:24:15.238Z,5
2023-04-20T05:25:18.198Z,5
2023-04-20T05:28:15.013Z,4
2023-04-20T05:29:15.025Z,4
2023-04-20T05:33:15.449Z,3
2023-04-20T05:34:15.371Z,3
2023-04-20T05:35:14.828Z,3
2023-04-20T05:36:14.891Z,3
2023-04-20T05:37:15.116Z,5
2023-04-20T05:38:15.334Z,5
2023-04-20T05:39:15.628Z,5
2023-04-20T05:43:14.753Z,4
2023-04-20T05:44:14.702Z,4
2023-04-20T05:45:14.987Z,4
2023-04-20T05:46:15.624Z,4
2023-04-20T05:47:15.567Z,5
2023-04-20T05:48:14.751Z,5
2023-04-20T05:49:14.842Z,5
2023-04-20T05:50:15.321Z,5
2023-04-20T05:51:15.287Z,5
2023-04-20T05:52:14.543Z,8
2023-04-20T05:53:15.250Z,8
2023-04-20T05:56:15.450Z,8
2023-04-20T05:57:14.697Z,6
2023-04-20T05:58:14.831Z,6
2023-04-20T05:59:15.307Z,6
2023-04-20T06:00:15.353Z,6
2023-04-20T06:01:15.043Z,6
2023-04-20T06:02:15.534Z,5
2023-04-20T06:03:17.104Z,5
2023-04-20T06:04:16.394Z,5
2023-04-20T06:06:16.680Z,5
2023-04-20T06:10:15.534Z,4
2023-04-20T06:11:14.674Z,4
2023-04-20T06:12:15.004Z,4
2023-04-20T06:13:15.294Z,4
2023-04-20T06:14:15.572Z,4
2023-04-20T06:15:14.995Z,4
2023-04-20T06:16:15.672Z,4
2023-04-20T06:17:15.252Z,11
2023-04-20T06:18:15.651Z,11
2023-04-20T06:21:14.744Z,11
2023-04-20T06:22:14.964Z,11
2023-04-20T06:23:15.305Z,11
2023-04-20T06:24:15.236Z,11
2023-04-20T06:25:15.986Z,11
2023-04-20T06:26:15.005Z,11
2023-04-20T06:27:15.253Z,7
2023-04-20T06:28:14.697Z,7
2023-04-20T06:29:14.828Z,7
2023-04-20T06:30:15.144Z,7
2023-04-20T06:31:15.672Z,7
2023-04-20T06:32:14.814Z,8
2023-04-20T06:34:15.349Z,8
2023-04-20T06:35:15.652Z,8
2023-04-20T06:40:17.153Z,8
2023-04-20T06:41:14.828Z,8
2023-04-20T06:42:15.104Z,9
2023-04-20T06:43:14.556Z,9
2023-04-20T06:44:14.869Z,9
2023-04-20T06:45:15.252Z,9
2023-04-20T06:46:14.627Z,9
2023-04-20T06:47:15.050Z,8
2023-04-20T06:48:38.025Z,8
2023-04-20T06:54:14.743Z,6
2023-04-20T06:55:14.776Z,6
2023-04-20T06:56:15.362Z,6
2023-04-20T06:57:14.814Z,7
2023-04-20T06:58:14.870Z,7
2023-04-20T06:59:15.210Z,7
2023-04-20T07:00:15.573Z,7
2023-04-20T07:01:15.325Z,7
2023-04-20T07:02:16.073Z,11
2023-04-20T07:03:16.626Z,11
2023-04-20T07:07:14.559Z,12
2023-04-20T07:08:14.657Z,12
2023-04-20T07:09:15.188Z,12
2023-04-20T07:10:15.472Z,12
2023-04-20T07:11:14.780Z,12
2023-04-20T07:12:15.032Z,9
2023-04-20T07:13:15.103Z,9
2023-04-20T07:14:15.718Z,9
2023-04-20T07:15:14.694Z,9
2023-04-20T07:16:15.393Z,9
2023-04-20T07:17:15.441Z,13
2023-04-20T07:18:14.912Z,13
2023-04-20T07:19:15.075Z,13
2023-04-20T07:20:15.160Z,13
2023-04-20T07:21:14.867Z,13
2023-04-20T07:22:15.037Z,14
2023-04-20T07:23:14.624Z,14
2023-04-20T07:24:15.082Z,14
2023-04-20T07:25:15.293Z,14
2023-04-20T07:26:15.557Z,14
2023-04-20T07:30:14.517Z,7
2023-04-20T07:31:15.104Z,7
2023-04-20T07:32:15.460Z,9
2023-04-20T07:33:15.827Z,9
2023-04-20T07:34:14.638Z,9
2023-04-20T07:35:14.931Z,9
2023-04-20T07:36:15.095Z,9
2023-04-20T07:37:15.290Z,6
2023-04-20T07:38:14.525Z,6
2023-04-20T07:39:14.884Z,6
2023-04-20T07:40:15.430Z,6
2023-04-20T07:41:15.179Z,6
2023-04-20T07:42:14.505Z,5
2023-04-20T07:43:15.006Z,5
2023-04-20T07:44:15.342Z,5
2023-04-20T07:45:15.421Z,5
2023-04-20T07:46:15.379Z,5
2023-04-20T07:47:15.992Z,7
2023-04-20T07:49:15.083Z,7
2023-04-20T07:50:15.122Z,7
2023-04-20T07:51:15.190Z,7
2023-04-20T07:52:26.500Z,8
2023-04-20T07:56:15.313Z,8
2023-04-20T07:57:15.181Z,12
2023-04-20T07:58:15.574Z,12
2023-04-20T07:59:14.759Z,12
2023-04-20T08:00:15.008Z,12
2023-04-20T08:01:15.319Z,12
2023-04-20T08:02:16.027Z,4
2023-04-20T08:03:15.589Z,4
2023-04-20T08:04:16.810Z,4
2023-04-20T08:05:17.369Z,4
2023-04-20T08:06:15.651Z,4
2023-04-20T08:07:15.265Z,6
2023-04-20T08:13:14.443Z,3
2023-04-20T08:14:14.837Z,3
2023-04-20T08:15:15.279Z,3
2023-04-20T08:16:16.399Z,3
2023-04-20T08:17:14.729Z,6
2023-04-20T08:18:15.190Z,6
2023-04-20T08:20:15.200Z,6
2023-04-20T08:21:16.163Z,6
2023-04-20T08:24:14.911Z,9
2023-04-20T08:25:15.503Z,9
2023-04-20T08:26:15.030Z,9
2023-04-20T08:27:15.416Z,11
2023-04-20T08:28:39.296Z,11
2023-04-20T08:31:15.169Z,11
2023-04-20T08:32:15.038Z,11
2023-04-20T08:33:15.710Z,11
2023-04-20T08:35:14.884Z,11
2023-04-20T08:36:14.938Z,11
2023-04-20T08:37:14.701Z,5
2023-04-20T08:38:33.582Z,5
2023-04-20T08:41:15.019Z,5
2023-04-20T08:42:14.934Z,7
2023-04-20T08:43:15.422Z,7
2023-04-20T08:44:15.698Z,7
2023-04-20T08:45:14.704Z,7
2023-04-20T08:46:15.075Z,7
2023-04-20T08:47:15.345Z,5
2023-04-20T08:48:15.639Z,5
2023-04-20T08:50:14.915Z,5
2023-04-20T08:51:14.982Z,5
2023-04-20T08:52:15.213Z,11
2023-04-20T08:53:14.534Z,11
2023-04-20T08:54:15.034Z,11
2023-04-20T08:55:14.786Z,11
2023-04-20T08:56:15.218Z,11
2023-04-20T08:57:15.291Z,4
2023-04-20T09:01:25.524Z,4
2023-04-20T09:02:15.473Z,8
2023-04-20T09:03:16.659Z,8
2023-04-20T09:04:17.538Z,8
2023-04-20T09:05:16.174Z,8
2023-04-20T09:06:14.735Z,8
2023-04-20T09:07:15.297Z,7
2023-04-20T09:11:15.152Z,7
2023-04-20T09:12:15.913Z,9
2023-04-20T09:13:14.917Z,9
2023-04-20T09:14:15.405Z,9
2023-04-20T09:15:15.460Z,9
2023-04-20T09:16:14.976Z,9
2023-04-20T09:17:15.056Z,8
2023-04-20T09:18:15.523Z,8
2023-04-20T09:19:18.314Z,8
2023-04-20T09:24:14.805Z,8
2023-04-20T09:25:14.818Z,8
2023-04-20T09:26:15.640Z,8
2023-04-20T09:27:14.603Z,8
2023-04-20T09:28:14.975Z,8
2023-04-20T09:29:15.361Z,8
2023-04-20T09:30:14.684Z,8
2023-04-20T09:31:17.218Z,8
2023-04-20T09:32:15.319Z,6
2023-04-20T09:33:14.998Z,6
2023-04-20T09:34:15.276Z,6
2023-04-20T09:35:15.237Z,6
2023-04-20T09:36:15.260Z,6
2023-04-20T09:37:17.536Z,7
2023-04-20T09:38:14.740Z,7
2023-04-20T09:39:15.030Z,7
2023-04-20T09:40:15.363Z,7
2023-04-20T09:41:14.566Z,7
2023-04-20T09:42:15.156Z,5
2023-04-20T09:43:17.548Z,5
2023-04-20T09:44:15.090Z,5
2023-04-20T09:47:15.418Z,11
2023-04-20T09:48:15.562Z,11
2023-04-20T09:49:14.925Z,11
2023-04-20T09:53:14.717Z,8
2023-04-20T09:54:14.020Z,8
2023-04-20T09:55:15.374Z,8
2023-04-20T09:56:14.493Z,8
2023-04-20T09:57:14.848Z,7
2023-04-20T09:58:14.974Z,7
2023-04-20T09:59:15.332Z,7
2023-04-20T10:00:15.581Z,7
2023-04-20T10:01:14.749Z,7
2023-04-20T10:02:15.652Z,13
2023-04-20T10:03:16.267Z,13
2023-04-20T10:04:17.463Z,13
2023-04-20T10:05:15.027Z,13
2023-04-20T10:06:15.137Z,13
2023-04-20T10:07:15.594Z,5
2023-04-20T10:08:14.945Z,5
2023-04-20T10:09:15.310Z,5
2023-04-20T10:10:14.534Z,5
2023-04-20T10:11:14.585Z,5
2023-04-20T10:12:14.895Z,1
2023-04-20T10:13:15.457Z,1
2023-04-20T10:14:15.589Z,1
2023-04-20T10:15:14.843Z,1
2023-04-20T10:16:14.647Z,1
2023-04-20T10:17:16.445Z,12
2023-04-20T10:20:14.623Z,12
2023-04-20T10:21:14.861Z,12
2023-04-20T10:22:15.283Z,6
2023-04-20T10:23:15.544Z,6
2023-04-20T10:24:14.668Z,6
2023-04-20T10:25:14.825Z,6
2023-04-20T10:26:15.117Z,6
2023-04-20T10:27:15.473Z,5
2023-04-20T10:28:14.424Z,5
2023-04-20T10:29:14.843Z,5
2023-04-20T10:30:15.358Z,5
2023-04-20T10:31:15.981Z,5
2023-04-20T10:34:15.214Z,11
2023-04-20T10:35:15.261Z,11
2023-04-20T10:36:14.590Z,11
2023-04-20T10:37:14.827Z,8
2023-04-20T10:38:15.284Z,8
2023-04-20T10:39:17.308Z,8
2023-04-20T10:40:18.293Z,8
2023-04-20T10:41:14.884Z,8
2023-04-20T10:42:17.531Z,8
2023-04-20T10:43:15.452Z,8
2023-04-20T10:44:15.018Z,8
2023-04-20T10:45:15.158Z,8
2023-04-20T10:46:15.740Z,8
2023-04-20T10:47:14.796Z,3
2023-04-20T10:48:17.424Z,3
2023-04-20T10:49:15.465Z,3
2023-04-20T10:50:15.933Z,3
2023-04-20T10:53:15.139Z,8
2023-04-20T10:54:18.140Z,8
2023-04-20T10:55:14.757Z,8
2023-04-20T10:56:15.031Z,8
2023-04-20T10:57:14.884Z,7
2023-04-20T10:58:15.183Z,7
2023-04-20T10:59:15.355Z,7
2023-04-20T11:04:16.328Z,13
2023-04-20T11:05:15.292Z,13
2023-04-20T11:06:15.161Z,13
2023-04-20T11:07:15.340Z,12
2023-04-20T11:08:15.582Z,12
2023-04-20T11:12:15.452Z,8
2023-04-20T11:13:15.507Z,8
2023-04-20T11:14:14.936Z,8
2023-04-20T11:15:15.088Z,8
2023-04-20T11:19:15.463Z,8
2023-04-20T11:20:15.036Z,8
2023-04-20T11:21:15.379Z,8
2023-04-20T11:22:15.448Z,9
2023-04-20T11:23:15.547Z,9
2023-04-20T11:24:14.847Z,9
2023-04-20T11:25:15.127Z,9
2023-04-20T11:26:14.507Z,9
2023-04-20T11:27:14.923Z,13
2023-04-20T11:28:14.933Z,13
2023-04-20T11:29:15.501Z,13
2023-04-20T11:30:14.965Z,13
2023-04-20T11:31:15.424Z,13
2023-04-20T11:32:16.371Z,7
2023-04-20T11:33:16.865Z,7
2023-04-20T11:34:17.726Z,7
2023-04-20T11:35:18.110Z,7
2023-04-20T11:36:15.238Z,7
2023-04-20T11:37:14.740Z,9
2023-04-20T11:38:15.012Z,9
2023-04-20T11:39:15.595Z,9
2023-04-20T11:40:14.451Z,9
2023-04-20T11:41:15.485Z,9
2023-04-20T11:44:15.015Z,5
2023-04-20T11:45:14.905Z,5
2023-04-20T11:46:15.413Z,5
2023-04-20T11:49:14.638Z,11
2023-04-20T11:50:14.809Z,11
2023-04-20T11:51:15.110Z,11
2023-04-20T11:52:14.906Z,9
2023-04-20T11:53:15.337Z,9
2023-04-20T11:54:14.442Z,9
2023-04-20T11:55:15.041Z,9
2023-04-20T11:56:15.558Z,9
2023-04-20T11:57:14.706Z,9
2023-04-20T11:58:14.918Z,9
2023-04-20T11:59:15.362Z,9
2023-04-20T12:00:15.539Z,9
2023-04-20T12:01:15.689Z,9
2023-04-20T12:02:15.037Z,4
2023-04-20T12:03:15.732Z,4
2023-04-20T12:04:17.834Z,4
2023-04-20T12:05:16.156Z,4
2023-04-20T12:06:15.065Z,4
2023-04-20T12:07:15.284Z,5
2023-04-20T12:08:15.505Z,5
2023-04-20T12:09:14.598Z,5
2023-04-20T12:10:15.040Z,5
2023-04-20T12:11:15.262Z,5
2023-04-20T12:12:15.394Z,9
2023-04-20T12:13:15.630Z,9
2023-04-20T12:14:14.760Z,9
2023-04-20T12:15:15.075Z,9
2023-04-20T12:16:15.214Z,9
2023-04-20T12:17:15.082Z,6
2023-04-20T12:18:15.509Z,6
2023-04-20T12:19:15.411Z,6
2023-04-20T12:20:14.645Z,6
2023-04-20T12:21:14.948Z,6
2023-04-20T12:22:15.389Z,4
2023-04-20T12:25:14.633Z,4
2023-04-20T12:26:14.637Z,4
2023-04-20T12:27:14.908Z,6
2023-04-20T12:28:15.046Z,6
2023-04-20T12:29:15.504Z,6
2023-04-20T12:30:14.955Z,6
2023-04-20T12:31:15.405Z,6
2023-04-20T12:32:15.436Z,7
2023-04-20T12:33:15.965Z,7
2023-04-20T12:34:14.789Z,7
2023-04-20T12:35:15.101Z,7
2023-04-20T12:36:15.162Z,7
2023-04-20T12:37:14.634Z,5
2023-04-20T12:38:17.597Z,5
2023-04-20T12:41:14.987Z,5
2023-04-20T12:42:15.410Z,6
2023-04-20T12:43:14.673Z,6
2023-04-20T12:45:15.196Z,6
2023-04-20T12:46:15.707Z,6
2023-04-20T12:47:15.316Z,4
2023-04-20T12:48:15.355Z,4
2023-04-20T12:50:14.414Z,4
2023-04-20T12:51:14.843Z,4
2023-04-20T12:53:14.632Z,3
2023-04-20T12:54:15.025Z,3
2023-04-20T12:55:15.126Z,3
2023-04-20T12:56:15.446Z,3
2023-04-20T12:57:14.610Z,5
2023-04-20T12:58:14.896Z,5
2023-04-20T12:59:15.123Z,5
2023-04-20T13:00:16.770Z,5
2023-04-20T13:01:15.299Z,5
2023-04-20T13:02:16.161Z,6
2023-04-20T13:03:16.924Z,6
2023-04-20T13:05:15.108Z,6
2023-04-20T13:06:17.962Z,6
2023-04-20T13:11:14.872Z,7
2023-04-20T13:12:14.637Z,4
2023-04-20T13:13:15.093Z,4
2023-04-20T13:14:15.260Z,4
2023-04-20T13:15:15.252Z,4
2023-04-20T13:16:14.947Z,4
2023-04-20T13:17:15.159Z,8
2023-04-20T13:18:15.585Z,8
2023-04-20T13:20:15.015Z,8
2023-04-20T13:21:14.885Z,8
2023-04-20T13:22:16.814Z,4
2023-04-20T13:23:15.410Z,4
2023-04-20T13:24:15.271Z,4
2023-04-20T13:25:15.476Z,4
2023-04-20T13:31:14.822Z,7
2023-04-20T13:32:15.536Z,6
2023-04-20T13:33:15.720Z,6
2023-04-20T13:34:14.630Z,6
2023-04-20T13:35:15.289Z,6
2023-04-20T13:36:15.495Z,6
2023-04-20T13:37:14.532Z,9
2023-04-20T13:38:14.856Z,9
2023-04-20T13:39:15.137Z,9
2023-04-20T13:40:15.254Z,9
2023-04-20T13:41:15.572Z,9
2023-04-20T13:42:14.569Z,8
2023-04-20T13:43:15.056Z,8
2023-04-20T13:44:15.595Z,8
2023-04-20T13:45:15.738Z,8
2023-04-20T13:46:15.160Z,8
2023-04-20T13:49:17.433Z,11
2023-04-20T13:52:14.875Z,7
2023-04-20T13:53:15.735Z,7
2023-04-20T13:54:15.077Z,7
2023-04-20T13:55:15.583Z,7
2023-04-20T13:56:14.532Z,7
2023-04-20T13:57:14.929Z,11
2023-04-20T13:58:15.264Z,11
2023-04-20T14:01:15.128Z,11
2023-04-20T14:02:15.645Z,8
2023-04-20T14:03:15.935Z,8
2023-04-20T14:04:15.854Z,8
2023-04-20T14:05:15.167Z,8
2023-04-20T14:06:15.335Z,8
2023-04-20T14:07:15.541Z,7
2023-04-20T14:08:14.782Z,7
2023-04-20T14:09:15.108Z,7
2023-04-20T14:10:15.534Z,7
2023-04-20T14:11:15.316Z,7
2023-04-20T14:16:15.291Z,8
2023-04-20T14:17:15.045Z,15
2023-04-20T14:18:15.595Z,15
2023-04-20T14:19:15.520Z,15
2023-04-20T14:20:14.833Z,15
2023-04-20T14:21:14.913Z,15
2023-04-20T14:22:15.177Z,9
2023-04-20T14:24:15.393Z,9
2023-04-20T14:25:14.807Z,9
2023-04-20T14:26:14.996Z,9
2023-04-20T14:27:15.289Z,8
2023-04-20T14:31:15.526Z,8
2023-04-20T14:33:15.165Z,12
2023-04-20T14:36:14.659Z,12
2023-04-20T14:37:14.938Z,7
2023-04-20T14:38:15.517Z,7
2023-04-20T14:39:14.691Z,7
2023-04-20T14:40:15.331Z,7
2023-04-20T14:41:15.521Z,7
2023-04-20T14:42:14.779Z,12
2023-04-20T14:43:15.125Z,12
2023-04-20T14:44:15.300Z,12
2023-04-20T14:45:14.703Z,12
2023-04-20T14:46:15.380Z,12
2023-04-20T14:47:15.404Z,11
2023-04-20T14:48:15.168Z,11
2023-04-20T14:49:14.581Z,11
2023-04-20T14:50:15.033Z,11
2023-04-20T14:51:15.184Z,11
2023-04-20T14:52:15.382Z,9
2023-04-20T14:53:15.340Z,9
2023-04-20T14:57:14.637Z,15
2023-04-20T14:58:15.030Z,15
2023-04-20T14:59:15.043Z,15
2023-04-20T15:00:15.324Z,15
2023-04-20T15:01:15.538Z,15
2023-04-20T15:02:15.343Z,11
2023-04-20T15:03:16.539Z,11
2023-04-20T15:04:16.664Z,11
2023-04-20T15:05:20.805Z,11
2023-04-20T15:06:14.724Z,11
2023-04-20T15:07:14.900Z,9
2023-04-20T15:08:15.025Z,9
2023-04-20T15:09:15.461Z,9
2023-04-20T15:11:14.711Z,9
2023-04-20T15:12:15.173Z,6
2023-04-20T15:13:15.509Z,6
2023-04-20T15:14:15.772Z,6
2023-04-20T15:15:14.833Z,6
2023-04-20T15:16:15.484Z,6
2023-04-20T15:17:15.534Z,1
2023-04-20T15:18:14.764Z,1
2023-04-20T15:19:14.831Z,1
2023-04-20T15:20:15.511Z,1
2023-04-20T15:21:14.849Z,1
2023-04-20T15:22:15.356Z,4
2023-04-20T15:23:15.616Z,4
2023-04-20T15:24:14.739Z,4
2023-04-20T15:25:15.102Z,4
2023-04-20T15:26:15.345Z,4
2023-04-20T15:28:14.602Z,7
2023-04-20T15:29:14.986Z,7
2023-04-20T15:30:15.345Z,7
2023-04-20T15:31:14.736Z,7
2023-04-20T15:32:15.287Z,5
2023-04-20T15:34:15.476Z,5
2023-04-20T15:35:14.738Z,5
2023-04-20T15:39:14.670Z,12
2023-04-20T15:40:14.743Z,12
2023-04-20T15:41:14.720Z,12
2023-04-20T15:42:15.015Z,9
2023-04-20T15:43:15.264Z,9
2023-04-20T15:44:15.408Z,9
2023-04-20T15:45:14.672Z,9
2023-04-20T15:46:15.225Z,9
2023-04-20T15:47:14.804Z,3
2023-04-20T15:48:15.531Z,3
2023-04-20T15:50:14.814Z,3
2023-04-20T15:51:15.092Z,3
2023-04-20T15:52:15.280Z,5
2023-04-20T15:53:15.407Z,5
2023-04-20T15:54:14.592Z,5
2023-04-20T15:55:15.051Z,5
2023-04-20T15:56:15.051Z,5
2023-04-20T15:57:15.421Z,5
2023-04-20T16:02:15.276Z,6
2023-04-20T16:03:16.196Z,6
2023-04-20T16:04:17.139Z,6
2023-04-20T16:05:15.683Z,6
2023-04-20T16:06:14.816Z,6
2023-04-20T16:07:15.212Z,5
2023-04-20T16:08:15.342Z,5
2023-04-20T16:09:14.732Z,5
2023-04-20T16:10:15.144Z,5
2023-04-20T16:11:15.349Z,5
2023-04-20T16:12:15.499Z,4
2023-04-20T16:13:14.824Z,4
2023-04-20T16:14:15.064Z,4
2023-04-20T16:15:15.302Z,4
2023-04-20T16:16:15.368Z,4
2023-04-20T16:17:15.614Z,4
2023-04-20T16:18:15.019Z,4
2023-04-20T16:19:15.156Z,4
2023-04-20T16:20:15.124Z,4
2023-04-20T16:21:14.522Z,4
2023-04-20T16:22:14.835Z,4
2023-04-20T16:23:15.279Z,4
2023-04-20T16:24:15.821Z,4
2023-04-20T16:27:13.955Z,3
2023-04-20T16:28:14.962Z,3
2023-04-20T16:29:15.617Z,3
2023-04-20T16:30:14.784Z,3
2023-04-20T16:31:17.234Z,3
2023-04-20T16:32:15.198Z,3
2023-04-20T16:33:15.573Z,3
2023-04-20T16:34:14.542Z,3
2023-04-20T16:35:14.973Z,3
2023-04-20T16:36:15.313Z,3
2023-04-20T16:37:15.531Z,4
2023-04-20T16:38:18.280Z,4
2023-04-20T16:39:15.101Z,4
2023-04-20T16:40:15.124Z,4
2023-04-20T16:41:15.089Z,4
2023-04-20T16:42:15.196Z,4
2023-04-20T16:46:15.104Z,4
2023-04-20T16:47:15.888Z,3
2023-04-20T16:48:14.959Z,3
2023-04-20T16:49:15.219Z,3
2023-04-20T16:50:15.539Z,3
2023-04-20T16:51:14.639Z,3
2023-04-20T16:52:15.159Z,1
2023-04-20T16:53:14.524Z,1
2023-04-20T16:54:14.711Z,1
2023-04-20T16:55:15.012Z,1
2023-04-20T16:57:15.371Z,4
2023-04-20T17:01:15.323Z,4
2023-04-20T17:02:15.523Z,5
2023-04-20T17:03:16.357Z,5
2023-04-20T17:05:15.215Z,5
2023-04-20T17:06:15.499Z,5
2023-04-20T17:07:14.861Z,4
2023-04-20T17:08:14.928Z,4
2023-04-20T17:09:15.781Z,4
2023-04-20T17:10:14.733Z,4
2023-04-20T17:11:14.482Z,4
2023-04-20T17:12:14.920Z,3
2023-04-20T17:13:15.164Z,3
2023-04-20T17:14:15.484Z,3
2023-04-20T17:16:15.070Z,3
2023-04-20T17:17:15.319Z,3
2023-04-20T17:18:15.806Z,3
2023-04-20T17:19:15.500Z,3
2023-04-20T17:20:14.754Z,3
2023-04-20T17:21:14.912Z,3
2023-04-20T17:22:14.910Z,4
2023-04-20T17:23:15.264Z,4
2023-04-20T17:24:15.471Z,4
2023-04-20T17:25:16.706Z,4
2023-04-20T17:26:14.796Z,4
2023-04-20T17:27:15.167Z,1
2023-04-20T17:28:15.346Z,1
2023-04-20T17:29:14.464Z,1
2023-04-20T17:30:15.084Z,1
2023-04-20T17:31:15.330Z,1
2023-04-20T17:32:14.763Z,1
2023-04-20T17:33:14.801Z,1
2023-04-20T17:34:15.083Z,1
2023-04-20T17:35:15.934Z,1
2023-04-20T17:36:14.730Z,1
2023-04-20T17:37:14.900Z,1
2023-04-20T17:38:15.180Z,1
2023-04-20T17:39:15.393Z,1
2023-04-20T17:43:14.886Z,3
2023-04-20T17:44:19.029Z,3
2023-04-20T17:45:15.396Z,3
2023-04-20T17:47:15.028Z,0
2023-04-20T17:48:15.837Z,0
2023-04-20T17:49:14.780Z,0
2023-04-20T17:50:15.157Z,0
2023-04-20T17:51:15.289Z,0
2023-04-20T17:52:15.577Z,1
2023-04-20T17:53:14.711Z,1
2023-04-20T17:54:15.003Z,1
2023-04-20T17:55:15.677Z,1
2023-04-20T17:58:15.260Z,0
2023-04-20T17:59:15.179Z,0
2023-04-20T18:00:15.649Z,0
2023-04-20T18:01:14.802Z,0
2023-04-20T18:02:15.464Z,1
2023-04-20T18:03:15.838Z,1
2023-04-20T18:04:16.706Z,1
2023-04-20T18:05:15.472Z,1
2023-04-20T18:10:14.051Z,3
2023-04-20T18:11:15.300Z,3
2023-04-20T18:12:15.738Z,3
2023-04-20T18:13:14.908Z,3
2023-04-20T18:14:15.324Z,3
2023-04-20T18:15:17.074Z,3
2023-04-20T18:16:14.982Z,3
2023-04-20T18:17:15.318Z,1
2023-04-20T18:18:15.496Z,1
2023-04-20T18:19:14.863Z,1
2023-04-20T18:20:14.792Z,1
2023-04-20T18:21:15.634Z,1
2023-04-20T18:26:14.950Z,1
2023-04-20T18:27:15.092Z,1
2023-04-20T18:28:15.553Z,1